sensor_id;sensor_type;location;lat;lon;timestamp;pressure;altitude;pressure_sealevel;temperature;humidity
6204;BME280;3135;42.602;23.468;2023-04-20T00:01:44;92215.19;;;6.74;100.00
6204;BME280;3135;42.602;23.468;2023-04-20T00:04:10;92214.06;;;6.80;100.00
6204;BME280;3135;42.602;23.468;2023-04-20T00:06:36;92199.31;;;6.69;100.00
6204;BME280;3135;42.602;23.468;2023-04-20T00:09:01;92205.81;;;6.82;100.00
6204;BME280;3135;42.602;23.468;2023-04-20T00:11:29;92196.00;;;6.82;100.00
6204;BME280;3135;42.602;23.468;2023-04-20T00:13:55;92202.75;;;6.99;100.00
6204;BME280;3135;42.602;23.468;2023-04-20T00:16:21;92175.50;;;6.88;100.00
6204;BME280;3135;42.602;23.468;2023-04-20T00:18:46;92193.94;;;7.03;100.00
6204;BME280;3135;42.602;23.468;2023-04-20T00:21:12;92178.81;;;6.75;100.00
6204;BME280;3135;42.602;23.468;2023-04-20T00:23:38;92178.38;;;6.62;100.00
6204;BME280;3135;42.602;23.468;2023-04-20T00:26:03;92174.69;;;6.63;100.00
6204;BME280;3135;42.602;23.468;2023-04-20T00:28:30;92190.16;;;6.80;100.00
6204;BME280;3135;42.602;23.468;2023-04-20T00:30:55;92188.44;;;6.65;100.00
6204;BME280;3135;42.602;23.468;2023-04-20T00:33:20;92187.53;;;6.51;100.00
6204;BME280;3135;42.602;23.468;2023-04-20T00:35:46;92185.69;;;6.47;100.00
6204;BME280;3135;42.602;23.468;2023-04-20T00:38:11;92183.78;;;6.52;100.00
6204;BME280;3135;42.602;23.468;2023-04-20T00:40:36;92182.38;;;6.31;100.00
6204;BME280;3135;42.602;23.468;2023-04-20T00:43:12;92174.22;;;6.22;100.00
6204;BME280;3135;42.602;23.468;2023-04-20T00:45:38;92181.03;;;6.33;100.00
6204;BME280;3135;42.602;23.468;2023-04-20T00:48:04;92179.22;;;6.29;100.00
6204;BME280;3135;42.602;23.468;2023-04-20T00:50:30;92180.34;;;6.52;100.00
6204;BME280;3135;42.602;23.468;2023-04-20T00:52:56;92166.13;;;6.37;100.00
6204;BME280;3135;42.602;23.468;2023-04-20T00:55:22;92177.78;;;6.42;100.00
6204;BME280;3135;42.602;23.468;2023-04-20T00:57:48;92160.63;;;6.29;100.00
6204;BME280;3135;42.602;23.468;2023-04-20T01:00:13;92166.56;;;6.15;100.00
6204;BME280;3135;42.602;23.468;2023-04-20T01:02:39;92179.22;;;6.29;100.00
6204;BME280;3135;42.602;23.468;2023-04-20T01:05:05;92174.94;;;6.33;100.00
6204;BME280;3135;42.602;23.468;2023-04-20T01:07:31;92170.69;;;6.32;100.00
6204;BME280;3135;42.602;23.468;2023-04-20T01:09:56;92181.63;;;6.25;100.00
6204;BME280;3135;42.602;23.468;2023-04-20T01:12:22;92174.81;;;6.14;100.00
6204;BME280;3135;42.602;23.468;2023-04-20T01:14:47;92168.47;;;6.10;100.00
6204;BME280;3135;42.602;23.468;2023-04-20T01:17:13;92166.56;;;6.15;100.00
6204;BME280;3135;42.602;23.468;2023-04-20T01:19:39;92181.91;;;6.24;100.00
6204;BME280;3135;42.602;23.468;2023-04-20T01:22:06;92186.63;;;6.32;100.00
6204;BME280;3135;42.602;23.468;2023-04-20T01:24:32;92168.03;;;6.32;100.00
6204;BME280;3135;42.602;23.468;2023-04-20T01:26:58;92161.78;;;6.18;100.00
6204;BME280;3135;42.602;23.468;2023-04-20T01:29:24;92160.09;;;6.32;100.00
6204;BME280;3135;42.602;23.468;2023-04-20T01:31:49;92167.16;;;6.12;100.00
6204;BME280;3135;42.602;23.468;2023-04-20T01:34:15;92161.38;;;6.00;100.00
6204;BME280;3135;42.602;23.468;2023-04-20T01:36:42;92166.84;;;6.14;100.00
6204;BME280;3135;42.602;23.468;2023-04-20T01:39:08;92152.84;;;6.08;100.00
6204;BME280;3135;42.602;23.468;2023-04-20T01:41:34;92158.63;;;6.15;100.00
6204;BME280;3135;42.602;23.468;2023-04-20T01:43:59;92171.34;;;6.19;100.00
6204;BME280;3135;42.602;23.468;2023-04-20T01:46:24;92164.50;;;6.12;100.00
6204;BME280;3135;42.602;23.468;2023-04-20T01:48:50;92162.63;;;6.13;100.00
6204;BME280;3135;42.602;23.468;2023-04-20T01:51:15;92155.91;;;6.21;100.00
6204;BME280;3135;42.602;23.468;2023-04-20T01:53:41;92158.63;;;6.15;100.00
6204;BME280;3135;42.602;23.468;2023-04-20T01:56:06;92150.16;;;6.13;100.00
6204;BME280;3135;42.602;23.468;2023-04-20T01:58:32;92157.69;;;6.30;100.00
6204;BME280;3135;42.602;23.468;2023-04-20T02:00:57;92162.66;;;6.42;100.00
6204;BME280;3135;42.602;23.468;2023-04-20T02:03:24;92153.41;;;6.34;100.00
6204;BME280;3135;42.602;23.468;2023-04-20T02:05:50;92155.28;;;6.34;100.00
6204;BME280;3135;42.602;23.468;2023-04-20T02:08:15;92154.50;;;6.33;100.00
6204;BME280;3135;42.602;23.468;2023-04-20T02:10:41;92112.53;;;6.06;100.00
6204;BME280;3135;42.602;23.468;2023-04-20T02:13:06;92138.66;;;6.23;100.00
6204;BME280;3135;42.602;23.468;2023-04-20T02:15:32;92142.09;;;6.24;100.00
6204;BME280;3135;42.602;23.468;2023-04-20T02:17:57;92149.09;;;6.44;100.00
6204;BME280;3135;42.602;23.468;2023-04-20T02:20:23;92151.53;;;6.40;100.00
6204;BME280;3135;42.602;23.468;2023-04-20T02:22:48;92152.13;;;6.32;100.00
6204;BME280;3135;42.602;23.468;2023-04-20T02:25:14;92155.03;;;6.30;100.00
6204;BME280;3135;42.602;23.468;2023-04-20T02:27:40;92156.13;;;6.29;100.00
6204;BME280;3135;42.602;23.468;2023-04-20T02:30:06;92157.88;;;6.39;100.00
6204;BME280;3135;42.602;23.468;2023-04-20T02:32:32;92144.56;;;6.44;100.00
6204;BME280;3135;42.602;23.468;2023-04-20T02:34:59;92154.03;;;6.55;100.00
6204;BME280;3135;42.602;23.468;2023-04-20T02:37:24;92145.78;;;6.57;100.00
6204;BME280;3135;42.602;23.468;2023-04-20T02:39:50;92151.88;;;6.57;100.00
6204;BME280;3135;42.602;23.468;2023-04-20T02:42:15;92162.44;;;6.62;100.00
6204;BME280;3135;42.602;23.468;2023-04-20T02:44:40;92167.16;;;6.71;100.00
6204;BME280;3135;42.602;23.468;2023-04-20T02:47:06;92149.22;;;6.57;100.00
6204;BME280;3135;42.602;23.468;2023-04-20T02:49:31;92155.47;;;6.72;100.00
6204;BME280;3135;42.602;23.468;2023-04-20T02:51:57;92165.88;;;6.68;100.00
6204;BME280;3135;42.602;23.468;2023-04-20T02:54:22;92153.19;;;6.60;100.00
6204;BME280;3135;42.602;23.468;2023-04-20T02:56:48;92146.88;;;6.56;100.00
6204;BME280;3135;42.602;23.468;2023-04-20T02:59:13;92161.00;;;6.75;100.00
6204;BME280;3135;42.602;23.468;2023-04-20T03:01:38;92147.06;;;6.64;100.00
6204;BME280;3135;42.602;23.468;2023-04-20T03:04:04;92155.03;;;6.64;100.00
6204;BME280;3135;42.602;23.468;2023-04-20T03:06:29;92151.28;;;6.65;100.00
6204;BME280;3135;42.602;23.468;2023-04-20T03:08:56;92142.72;;;6.45;100.00
6204;BME280;3135;42.602;23.468;2023-04-20T03:11:21;92163.78;;;6.36;100.00
6204;BME280;3135;42.602;23.468;2023-04-20T03:13:47;92139.59;;;6.08;100.00
6204;BME280;3135;42.602;23.468;2023-04-20T03:16:12;92161.91;;;6.02;100.00
6204;BME280;3135;42.602;23.468;2023-04-20T03:18:38;92137.91;;;6.18;100.00
6204;BME280;3135;42.602;23.468;2023-04-20T03:21:04;92151.44;;;6.16;100.00
6204;BME280;3135;42.602;23.468;2023-04-20T03:23:29;92156.72;;;6.21;100.00
6204;BME280;3135;42.602;23.468;2023-04-20T03:25:55;92140.69;;;6.02;100.00
6204;BME280;3135;42.602;23.468;2023-04-20T03:28:21;92149.03;;;6.20;100.00
6204;BME280;3135;42.602;23.468;2023-04-20T03:30:46;92159.09;;;6.23;100.00
6204;BME280;3135;42.602;23.468;2023-04-20T03:33:12;92144.59;;;6.10;100.00
6204;BME280;3135;42.602;23.468;2023-04-20T03:35:37;92144.19;;;5.98;100.00
6204;BME280;3135;42.602;23.468;2023-04-20T03:38:04;92152.34;;;6.01;100.00
6204;BME280;3135;42.602;23.468;2023-04-20T03:40:30;92144.59;;;6.10;100.00
6204;BME280;3135;42.602;23.468;2023-04-20T03:42:55;92169.38;;;6.29;100.00
6204;BME280;3135;42.602;23.468;2023-04-20T03:45:21;92162.66;;;6.42;100.00
6204;BME280;3135;42.602;23.468;2023-04-20T03:47:46;92163.34;;;6.53;100.00
6204;BME280;3135;42.602;23.468;2023-04-20T03:50:12;92155.19;;;6.44;100.00
6204;BME280;3135;42.602;23.468;2023-04-20T03:52:37;92169.53;;;6.43;100.00
6204;BME280;3135;42.602;23.468;2023-04-20T03:55:03;92168.00;;;6.37;100.00
6204;BME280;3135;42.602;23.468;2023-04-20T03:57:28;92169.72;;;6.23;100.00
6204;BME280;3135;42.602;23.468;2023-04-20T03:59:54;92156.69;;;6.26;100.00
6204;BME280;3135;42.602;23.468;2023-04-20T04:02:19;92169.50;;;6.48;100.00
6204;BME280;3135;42.602;23.468;2023-04-20T04:04:46;92158.38;;;6.46;100.00
6204;BME280;3135;42.602;23.468;2023-04-20T04:07:12;92155.53;;;6.66;100.00
6204;BME280;3135;42.602;23.468;2023-04-20T04:09:37;92154.44;;;6.68;100.00
6204;BME280;3135;42.602;23.468;2023-04-20T04:12:02;92170.59;;;6.71;100.00
6204;BME280;3135;42.602;23.468;2023-04-20T04:14:29;92177.84;;;6.65;100.00
6204;BME280;3135;42.602;23.468;2023-04-20T04:16:54;92177.50;;;6.72;100.00
6204;BME280;3135;42.602;23.468;2023-04-20T04:19:20;92194.16;;;6.83;100.00
6204;BME280;3135;42.602;23.468;2023-04-20T04:21:45;92170.09;;;6.69;100.00
6204;BME280;3135;42.602;23.468;2023-04-20T04:24:11;92184.66;;;6.72;100.00
6204;BME280;3135;42.602;23.468;2023-04-20T04:26:36;92185.19;;;6.74;100.00
6204;BME280;3135;42.602;23.468;2023-04-20T04:29:02;92184.41;;;6.73;100.00
6204;BME280;3135;42.602;23.468;2023-04-20T04:31:28;92170.31;;;6.73;100.00
6204;BME280;3135;42.602;23.468;2023-04-20T04:33:56;92177.13;;;6.84;100.00
6204;BME280;3135;42.602;23.468;2023-04-20T04:36:21;92189.38;;;6.80;100.00
6204;BME280;3135;42.602;23.468;2023-04-20T04:38:48;92180.81;;;6.88;100.00
6204;BME280;3135;42.602;23.468;2023-04-20T04:41:13;92190.31;;;6.94;100.00
6204;BME280;3135;42.602;23.468;2023-04-20T04:43:39;92174.38;;;6.94;100.00
6204;BME280;3135;42.602;23.468;2023-04-20T04:46:06;92173.06;;;6.91;100.00
6204;BME280;3135;42.602;23.468;2023-04-20T04:48:36;92196.16;;;6.91;100.00
6204;BME280;3135;42.602;23.468;2023-04-20T04:51:02;92193.97;;;6.98;100.00
6204;BME280;3135;42.602;23.468;2023-04-20T04:53:28;92184.75;;;6.90;100.00
6204;BME280;3135;42.602;23.468;2023-04-20T04:55:53;92182.91;;;6.62;100.00
6204;BME280;3135;42.602;23.468;2023-04-20T04:58:19;92199.66;;;6.86;100.00
6204;BME280;3135;42.602;23.468;2023-04-20T05:00:44;92190.41;;;6.84;100.00
6204;BME280;3135;42.602;23.468;2023-04-20T05:03:09;92201.53;;;6.86;100.00
6204;BME280;3135;42.602;23.468;2023-04-20T05:05:35;92200.94;;;6.94;100.00
6204;BME280;3135;42.602;23.468;2023-04-20T05:08:00;92211.56;;;6.94;100.00
6204;BME280;3135;42.602;23.468;2023-04-20T05:10:26;92193.81;;;6.89;100.00
6204;BME280;3135;42.602;23.468;2023-04-20T05:12:51;92200.03;;;7.04;100.00
6204;BME280;3135;42.602;23.468;2023-04-20T05:15:17;92200.03;;;7.04;100.00
6204;BME280;3135;42.602;23.468;2023-04-20T05:17:43;92206.13;;;7.04;100.00
6204;BME280;3135;42.602;23.468;2023-04-20T05:20:08;92211.88;;;6.87;100.00
6204;BME280;3135;42.602;23.468;2023-04-20T05:22:35;92201.63;;;6.76;100.00
6204;BME280;3135;42.602;23.468;2023-04-20T05:25:01;92201.53;;;6.86;100.00
6204;BME280;3135;42.602;23.468;2023-04-20T05:27:26;92208.94;;;6.89;100.00
6204;BME280;3135;42.602;23.468;2023-04-20T05:29:52;92212.41;;;6.60;100.00
6204;BME280;3135;42.602;23.468;2023-04-20T05:32:17;92209.88;;;6.45;100.00
6204;BME280;3135;42.602;23.468;2023-04-20T05:34:42;92211.66;;;6.55;100.00
6204;BME280;3135;42.602;23.468;2023-04-20T05:37:08;92215.88;;;6.56;100.00
6204;BME280;3135;42.602;23.468;2023-04-20T05:39:33;92223.47;;;6.68;100.00
6204;BME280;3135;42.602;23.468;2023-04-20T05:41:59;92197.66;;;6.44;100.00
6204;BME280;3135;42.602;23.468;2023-04-20T05:44:24;92217.16;;;6.63;100.00
6204;BME280;3135;42.602;23.468;2023-04-20T05:46:50;92215.44;;;6.78;100.00
6204;BME280;3135;42.602;23.468;2023-04-20T05:49:15;92219.31;;;6.85;100.00
6204;BME280;3135;42.602;23.468;2023-04-20T05:51:41;92215.59;;;6.86;100.00
6204;BME280;3135;42.602;23.468;2023-04-20T05:54:06;92223.50;;;6.91;100.00
6204;BME280;3135;42.602;23.468;2023-04-20T05:56:32;92212.63;;;6.93;100.00
6204;BME280;3135;42.602;23.468;2023-04-20T05:58:58;92216.00;;;6.75;100.00
6204;BME280;3135;42.602;23.468;2023-04-20T06:01:24;92211.31;;;6.90;100.00
6204;BME280;3135;42.602;23.468;2023-04-20T06:03:49;92223.19;;;6.98;100.00
6204;BME280;3135;42.602;23.468;2023-04-20T06:06:15;92210.28;;;6.86;100.00
6204;BME280;3135;42.602;23.468;2023-04-20T06:08:41;92217.13;;;6.69;100.00
6204;BME280;3135;42.602;23.468;2023-04-20T06:11:06;92214.06;;;6.80;100.00
6204;BME280;3135;42.602;23.468;2023-04-20T06:13:32;92209.50;;;6.86;100.00
6204;BME280;3135;42.602;23.468;2023-04-20T06:15:57;92205.16;;;6.66;100.00
6204;BME280;3135;42.602;23.468;2023-04-20T06:18:22;92204.72;;;6.59;100.00
6204;BME280;3135;42.602;23.468;2023-04-20T06:20:48;92212.44;;;6.55;100.00
6204;BME280;3135;42.602;23.468;2023-04-20T06:23:14;92215.66;;;6.81;100.00
6204;BME280;3135;42.602;23.468;2023-04-20T06:25:39;92214.97;;;6.71;100.00
6204;BME280;3135;42.602;23.468;2023-04-20T06:28:05;92225.97;;;6.54;100.00
6204;BME280;3135;42.602;23.468;2023-04-20T06:30:31;92231.81;;;6.56;100.00
6204;BME280;3135;42.602;23.468;2023-04-20T06:32:58;92211.22;;;6.43;100.00
6204;BME280;3135;42.602;23.468;2023-04-20T06:35:24;92222.47;;;6.63;100.00
6204;BME280;3135;42.602;23.468;2023-04-20T06:37:50;92221.06;;;6.71;100.00
6204;BME280;3135;42.602;23.468;2023-04-20T06:40:16;92228.72;;;6.78;100.00
6204;BME280;3135;42.602;23.468;2023-04-20T06:42:41;92234.81;;;6.78;100.00
6204;BME280;3135;42.602;23.468;2023-04-20T06:45:07;92218.41;;;6.71;100.00
6204;BME280;3135;42.602;23.468;2023-04-20T06:47:33;92239.69;;;6.95;100.00
6204;BME280;3135;42.602;23.468;2023-04-20T06:50:00;92239.28;;;6.83;100.00
6204;BME280;3135;42.602;23.468;2023-04-20T06:52:27;92234.06;;;7.02;100.00
6204;BME280;3135;42.602;23.468;2023-04-20T06:54:52;92245.44;;;7.07;100.00
6204;BME280;3135;42.602;23.468;2023-04-20T06:57:18;92244.81;;;7.15;100.00
6204;BME280;3135;42.602;23.468;2023-04-20T06:59:44;92235.97;;;6.96;100.00
6204;BME280;3135;42.602;23.468;2023-04-20T07:02:09;92238.81;;;6.76;100.00
6204;BME280;3135;42.602;23.468;2023-04-20T07:04:35;92234.56;;;6.75;100.00
6204;BME280;3135;42.602;23.468;2023-04-20T07:07:00;92244.66;;;6.78;100.00
6204;BME280;3135;42.602;23.468;2023-04-20T07:09:26;92251.59;;;7.03;100.00
6204;BME280;3135;42.602;23.468;2023-04-20T07:11:52;92249.75;;;6.98;100.00
6204;BME280;3135;42.602;23.468;2023-04-20T07:14:17;92250.50;;;7.04;100.00
6204;BME280;3135;42.602;23.468;2023-04-20T07:16:42;92233.47;;;7.05;100.00
6204;BME280;3135;42.602;23.468;2023-04-20T07:19:08;92253.25;;;7.23;100.00
6204;BME280;3135;42.602;23.468;2023-04-20T07:21:33;92240.38;;;7.35;100.00
6204;BME280;3135;42.602;23.468;2023-04-20T07:24:00;92241.59;;;7.18;100.00
6204;BME280;3135;42.602;23.468;2023-04-20T07:26:25;92257.75;;;7.22;100.00
6204;BME280;3135;42.602;23.468;2023-04-20T07:28:51;92256.06;;;7.07;100.00
6204;BME280;3135;42.602;23.468;2023-04-20T07:31:16;92250.38;;;6.90;100.00
6204;BME280;3135;42.602;23.468;2023-04-20T07:33:42;92255.03;;;7.03;100.00
6204;BME280;3135;42.602;23.468;2023-04-20T07:36:08;92259.91;;;6.91;100.00
6204;BME280;3135;42.602;23.468;2023-04-20T07:38:35;92254.19;;;7.08;100.00
6204;BME280;3135;42.602;23.468;2023-04-20T07:41:01;92240.06;;;7.12;100.00
6204;BME280;3135;42.602;23.468;2023-04-20T07:43:27;92257.28;;;7.44;100.00
6204;BME280;3135;42.602;23.468;2023-04-20T07:45:52;92253.97;;;7.52;100.00
6204;BME280;3135;42.602;23.468;2023-04-20T07:48:18;92241.59;;;7.66;100.00
6204;BME280;3135;42.602;23.468;2023-04-20T07:50:44;92236.03;;;7.87;100.00
6204;BME280;3135;42.602;23.468;2023-04-20T07:53:10;92245.97;;;8.00;100.00
6204;BME280;3135;42.602;23.468;2023-04-20T07:55:35;92252.66;;;8.16;100.00
6204;BME280;3135;42.602;23.468;2023-04-20T07:58:01;92240.00;;;8.27;100.00
6204;BME280;3135;42.602;23.468;2023-04-20T08:00:26;92265.69;;;8.37;100.00
6204;BME280;3135;42.602;23.468;2023-04-20T08:02:52;92258.09;;;8.49;100.00
6204;BME280;3135;42.602;23.468;2023-04-20T08:05:17;92251.03;;;8.39;100.00
6204;BME280;3135;42.602;23.468;2023-04-20T08:07:43;92238.50;;;8.21;100.00
6204;BME280;3135;42.602;23.468;2023-04-20T08:10:09;92251.34;;;8.38;100.00
6204;BME280;3135;42.602;23.468;2023-04-20T08:12:35;92261.09;;;8.61;100.00
6204;BME280;3135;42.602;23.468;2023-04-20T08:15:00;92250.78;;;8.36;100.00
6204;BME280;3135;42.602;23.468;2023-04-20T08:17:29;92260.66;;;8.35;100.00
6204;BME280;3135;42.602;23.468;2023-04-20T08:19:55;92249.66;;;8.42;100.00
6204;BME280;3135;42.602;23.468;2023-04-20T08:22:20;92253.22;;;8.32;100.00
6204;BME280;3135;42.602;23.468;2023-04-20T08:24:46;92247.13;;;8.32;100.00
6204;BME280;3135;42.602;23.468;2023-04-20T08:27:12;92262.78;;;8.38;100.00
6204;BME280;3135;42.602;23.468;2023-04-20T08:29:38;92259.81;;;8.40;100.00
6204;BME280;3135;42.602;23.468;2023-04-20T08:32:04;92256.97;;;8.69;100.00
6204;BME280;3135;42.602;23.468;2023-04-20T08:34:33;92260.84;;;8.77;100.00
6204;BME280;3135;42.602;23.468;2023-04-20T08:36:58;92259.16;;;9.00;100.00
6204;BME280;3135;42.602;23.468;2023-04-20T08:39:24;92254.38;;;8.83;100.00
6204;BME280;3135;42.602;23.468;2023-04-20T08:41:49;92246.44;;;8.78;100.00
6204;BME280;3135;42.602;23.468;2023-04-20T08:44:20;92263.59;;;8.72;100.00
6204;BME280;3135;42.602;23.468;2023-04-20T08:46:47;92260.47;;;8.83;100.00
6204;BME280;3135;42.602;23.468;2023-04-20T08:49:14;92260.78;;;8.82;100.00
6204;BME280;3135;42.602;23.468;2023-04-20T08:51:42;92253.38;;;8.60;100.00
6204;BME280;3135;42.602;23.468;2023-04-20T08:54:09;92255.69;;;8.66;100.00
6204;BME280;3135;42.602;23.468;2023-04-20T08:56:45;92266.22;;;8.58;100.00
6204;BME280;3135;42.602;23.468;2023-04-20T08:59:11;92262.59;;;8.67;100.00
6204;BME280;3135;42.602;23.468;2023-04-20T09:01:42;92264.41;;;8.72;100.00
6204;BME280;3135;42.602;23.468;2023-04-20T09:04:24;92245.47;;;8.55;100.00
6204;BME280;3135;42.602;23.468;2023-04-20T09:06:54;92265.75;;;8.69;100.00
6204;BME280;3135;42.602;23.468;2023-04-20T09:09:21;92244.75;;;8.49;100.00
6204;BME280;3135;42.602;23.468;2023-04-20T09:11:47;92247.44;;;8.49;100.00
6204;BME280;3135;42.602;23.468;2023-04-20T09:14:23;92245.34;;;8.46;100.00
6204;BME280;3135;42.602;23.468;2023-04-20T09:16:50;92254.09;;;8.65;100.00
6204;BME280;3135;42.602;23.468;2023-04-20T09:19:23;92268.72;;;8.68;100.00
6204;BME280;3135;42.602;23.468;2023-04-20T09:21:50;92253.69;;;8.91;100.00
6204;BME280;3135;42.602;23.468;2023-04-20T09:24:16;92261.75;;;9.05;100.00
6204;BME280;3135;42.602;23.468;2023-04-20T09:26:41;92253.94;;;9.08;100.00
6204;BME280;3135;42.602;23.468;2023-04-20T09:29:17;92250.19;;;9.09;100.00
6204;BME280;3135;42.602;23.468;2023-04-20T09:31:43;92241.84;;;9.30;100.00
6204;BME280;3135;42.602;23.468;2023-04-20T09:34:08;92240.38;;;9.51;100.00
6204;BME280;3135;42.602;23.468;2023-04-20T09:36:44;92251.75;;;9.84;100.00
6204;BME280;3135;42.602;23.468;2023-04-20T09:39:12;92255.41;;;9.88;100.00
6204;BME280;3135;42.602;23.468;2023-04-20T09:41:39;92261.97;;;10.46;100.00
6204;BME280;3135;42.602;23.468;2023-04-20T09:44:06;92243.81;;;10.57;100.00
6204;BME280;3135;42.602;23.468;2023-04-20T09:46:34;92261.03;;;10.64;100.00
6204;BME280;3135;42.602;23.468;2023-04-20T09:49:02;92258.84;;;10.53;100.00
6204;BME280;3135;42.602;23.468;2023-04-20T09:51:31;92258.63;;;10.40;100.00
6204;BME280;3135;42.602;23.468;2023-04-20T09:53:58;92258.22;;;10.33;100.00
6204;BME280;3135;42.602;23.468;2023-04-20T09:56:25;92262.63;;;10.52;100.00
6204;BME280;3135;42.602;23.468;2023-04-20T09:58:51;92239.13;;;10.62;100.00
6204;BME280;3135;42.602;23.468;2023-04-20T10:01:17;92257.00;;;10.75;100.00
6204;BME280;3135;42.602;23.468;2023-04-20T10:03:44;92249.84;;;11.07;100.00
6204;BME280;3135;42.602;23.468;2023-04-20T10:06:23;92240.72;;;11.08;100.00
6204;BME280;3135;42.602;23.468;2023-04-20T10:08:49;92241.94;;;11.24;100.00
6204;BME280;3135;42.602;23.468;2023-04-20T10:11:37;92248.78;;;11.39;100.00
6204;BME280;3135;42.602;23.468;2023-04-20T10:14:24;92207.38;;;11.76;100.00
6204;BME280;3135;42.602;23.468;2023-04-20T10:17:04;92226.59;;;12.53;100.00
6204;BME280;3135;42.602;23.468;2023-04-20T10:19:41;92225.19;;;12.82;100.00
6204;BME280;3135;42.602;23.468;2023-04-20T10:22:08;92234.66;;;12.70;100.00
6204;BME280;3135;42.602;23.468;2023-04-20T10:24:35;92247.09;;;12.58;100.00
6204;BME280;3135;42.602;23.468;2023-04-20T10:27:03;92242.38;;;12.63;100.00
6204;BME280;3135;42.602;23.468;2023-04-20T10:29:28;92241.91;;;12.61;100.00
6204;BME280;3135;42.602;23.468;2023-04-20T10:31:55;92234.78;;;12.65;100.00
6204;BME280;3135;42.602;23.468;2023-04-20T10:34:35;92224.09;;;12.57;100.00
6204;BME280;3135;42.602;23.468;2023-04-20T10:39:33;92231.03;;;13.65;100.00
6204;BME280;3135;42.602;23.468;2023-04-20T10:41:58;92217.03;;;13.51;100.00
6204;BME280;3135;42.602;23.468;2023-04-20T10:44:26;92229.91;;;12.76;100.00
6204;BME280;3135;42.602;23.468;2023-04-20T10:46:51;92222.31;;;12.78;100.00
6204;BME280;3135;42.602;23.468;2023-04-20T10:49:17;92233.84;;;12.52;100.00
6204;BME280;3135;42.602;23.468;2023-04-20T10:51:49;92226.09;;;12.34;100.00
6204;BME280;3135;42.602;23.468;2023-04-20T10:54:16;92236.03;;;12.50;100.00
6204;BME280;3135;42.602;23.468;2023-04-20T10:56:46;92234.28;;;13.07;100.00
6204;BME280;3135;42.602;23.468;2023-04-20T10:59:14;92225.88;;;13.51;100.00
6204;BME280;3135;42.602;23.468;2023-04-20T11:01:40;92211.28;;;12.79;100.00
6204;BME280;3135;42.602;23.468;2023-04-20T11:04:06;92215.53;;;13.24;100.00
6204;BME280;3135;42.602;23.468;2023-04-20T11:06:35;92239.38;;;13.64;97.38
6204;BME280;3135;42.602;23.468;2023-04-20T11:09:03;92219.94;;;13.75;98.31
6204;BME280;3135;42.602;23.468;2023-04-20T11:11:29;92218.19;;;13.79;100.00
6204;BME280;3135;42.602;23.468;2023-04-20T11:14:05;92226.34;;;14.21;100.00
6204;BME280;3135;42.602;23.468;2023-04-20T11:16:31;92230.88;;;14.29;100.00
6204;BME280;3135;42.602;23.468;2023-04-20T11:18:57;92221.53;;;14.36;96.00
6204;BME280;3135;42.602;23.468;2023-04-20T11:21:40;92211.22;;;14.17;98.73
6204;BME280;3135;42.602;23.468;2023-04-20T11:24:20;92229.31;;;13.99;97.63
6204;BME280;3135;42.602;23.468;2023-04-20T11:26:47;92225.56;;;14.50;91.45
6204;BME280;3135;42.602;23.468;2023-04-20T11:29:29;92220.66;;;14.44;95.65
6204;BME280;3135;42.602;23.468;2023-04-20T11:31:56;92222.41;;;14.48;96.58
6204;BME280;3135;42.602;23.468;2023-04-20T11:34:22;92222.63;;;14.64;93.91
6204;BME280;3135;42.602;23.468;2023-04-20T11:36:48;92214.75;;;14.80;95.40
6204;BME280;3135;42.602;23.468;2023-04-20T11:39:27;92216.72;;;14.92;92.98
6204;BME280;3135;42.602;23.468;2023-04-20T11:41:56;92210.66;;;14.95;89.44
6204;BME280;3135;42.602;23.468;2023-04-20T11:44:25;92220.63;;;14.94;88.55
6204;BME280;3135;42.602;23.468;2023-04-20T11:46:52;92219.00;;;14.81;90.92
6204;BME280;3135;42.602;23.468;2023-04-20T11:49:19;92231.75;;;15.05;91.93
6204;BME280;3135;42.602;23.468;2023-04-20T11:51:46;92228.47;;;15.20;89.82
6204;BME280;3135;42.602;23.468;2023-04-20T11:54:12;92227.47;;;14.92;92.15
6204;BME280;3135;42.602;23.468;2023-04-20T11:56:38;92216.03;;;14.95;90.21
6204;BME280;3135;42.602;23.468;2023-04-20T11:59:04;92216.31;;;15.02;86.41
6204;BME280;3135;42.602;23.468;2023-04-20T12:01:30;92226.16;;;14.98;87.74
6204;BME280;3135;42.602;23.468;2023-04-20T12:03:55;92211.97;;;14.89;89.82
6204;BME280;3135;42.602;23.468;2023-04-20T12:06:21;92198.38;;;14.43;95.90
6204;BME280;3135;42.602;23.468;2023-04-20T12:08:46;92221.38;;;14.62;91.44
6204;BME280;3135;42.602;23.468;2023-04-20T12:11:13;92217.81;;;14.49;94.59
6204;BME280;3135;42.602;23.468;2023-04-20T12:13:41;92210.97;;;14.30;93.48
6204;BME280;3135;42.602;23.468;2023-04-20T12:16:07;92223.09;;;14.37;94.98
6204;BME280;3135;42.602;23.468;2023-04-20T12:18:32;92213.19;;;14.28;92.10
6204;BME280;3135;42.602;23.468;2023-04-20T12:20:58;92217.97;;;14.44;92.42
6204;BME280;3135;42.602;23.468;2023-04-20T12:23:25;92202.16;;;14.51;90.58
6204;BME280;3135;42.602;23.468;2023-04-20T12:25:50;92207.72;;;14.67;91.13
6204;BME280;3135;42.602;23.468;2023-04-20T12:28:15;92195.22;;;14.50;96.27
6204;BME280;3135;42.602;23.468;2023-04-20T12:30:41;92206.44;;;14.43;94.21
6204;BME280;3135;42.602;23.468;2023-04-20T12:33:06;92206.22;;;14.57;93.55
6204;BME280;3135;42.602;23.468;2023-04-20T12:35:32;92205.09;;;14.79;94.46
6204;BME280;3135;42.602;23.468;2023-04-20T12:37:57;92178.28;;;14.70;94.35
6204;BME280;3135;42.602;23.468;2023-04-20T12:40:23;92189.19;;;14.86;96.13
6204;BME280;3135;42.602;23.468;2023-04-20T12:42:49;92197.78;;;15.00;90.24
6204;BME280;3135;42.602;23.468;2023-04-20T12:45:15;92204.16;;;14.96;93.06
6204;BME280;3135;42.602;23.468;2023-04-20T12:47:40;92189.47;;;14.01;100.00
6204;BME280;3135;42.602;23.468;2023-04-20T12:50:06;92201.03;;;13.63;100.00
6204;BME280;3135;42.602;23.468;2023-04-20T12:52:32;92193.50;;;13.48;100.00
6204;BME280;3135;42.602;23.468;2023-04-20T12:54:58;92216.28;;;13.42;100.00
6204;BME280;3135;42.602;23.468;2023-04-20T12:57:23;92217.13;;;12.99;100.00
6204;BME280;3135;42.602;23.468;2023-04-20T12:59:49;92222.63;;;12.50;100.00
6204;BME280;3135;42.602;23.468;2023-04-20T13:02:15;92210.34;;;12.23;100.00
6204;BME280;3135;42.602;23.468;2023-04-20T13:04:41;92184.59;;;11.48;100.00
6204;BME280;3135;42.602;23.468;2023-04-20T13:07:07;92194.06;;;11.54;100.00
6204;BME280;3135;42.602;23.468;2023-04-20T13:09:32;92183.66;;;11.44;100.00